Time;durP1;ratioP1;P1;durP2;ratioP2;P2;SDS_P1;SDS_P2;PMS_P1;PMS_P2;Temp;Humidity;BMP_temperature;BMP_pressure;BME280_temperature;BME280_humidity;BME280_pressure;Samples;Min_cycle;Max_cycle;Signal;HPM_P1;HPM_P2
2024/01/05 00:01:30;;;;;;;5.20;1.80;;;;;;;;;;103840;1289;544777;-72
2024/01/05 00:05:11;;;;;;;5.20;1.70;;;;;;;;;;103812;1295;544940;-71
2024/01/05 00:08:48;;;;;;;5.40;2.20;;;;;;;;;;103802;1289;545032;-71
2024/01/05 00:12:26;;;;;;;5.10;1.70;;;;;;;;;;103780;1289;545677;-72
2024/01/05 00:16:04;;;;;;;9.20;4.00;;;;;;;;;;104730;1283;545555;-72
2024/01/05 00:19:41;;;;;;;4.50;1.50;;;;;;;;;;103796;1289;544790;-72
2024/01/05 00:23:19;;;;;;;5.20;1.80;;;;;;;;;;103779;1291;544905;-72
2024/01/05 00:26:59;;;;;;;7.60;2.70;;;;;;;;;;103776;1287;544823;-71
2024/01/05 00:30:30;;;;;;;6.20;2.10;;;;;;;;;;103996;1292;545014;-71
2024/01/05 00:34:11;;;;;;;4.70;1.60;;;;;;;;;;103795;1290;545210;-70
2024/01/05 00:37:49;;;;;;;4.60;1.60;;;;;;;;;;103603;1291;545007;-72
2024/01/05 00:41:26;;;;;;;4.90;2.00;;;;;;;;;;103798;1290;544895;-71
2024/01/05 00:45:00;;;;;;;8.10;3.40;;;;;;;;;;103714;1292;545127;-73
2024/01/05 00:48:47;;;;;;;6.10;2.50;;;;;;;;;;103752;1289;547943;-71
2024/01/05 00:52:20;;;;;;;4.90;1.60;;;;;;;;;;103667;1289;545864;-71
2024/01/05 00:55:56;;;;;;;3.70;1.40;;;;;;;;;;103733;1295;545967;-72
2024/01/05 00:59:34;;;;;;;4.10;1.40;;;;;;;;;;103753;1291;545562;-71
2024/01/05 01:03:11;;;;;;;5.60;2.20;;;;;;;;;;103735;1289;545037;-72
2024/01/05 01:06:48;;;;;;;6.60;2.10;;;;;;;;;;103629;1295;544923;-71
2024/01/05 01:10:26;;;;;;;8.60;3.00;;;;;;;;;;103664;1289;546545;-71
2024/01/05 01:14:03;;;;;;;6.30;1.80;;;;;;;;;;103665;1289;544950;-71
2024/01/05 01:17:41;;;;;;;8.80;3.40;;;;;;;;;;103730;1292;544867;-71
2024/01/05 01:21:18;;;;;;;13.30;6.30;;;;;;;;;;103397;1295;545027;-71
2024/01/05 01:24:56;;;;;;;14.40;6.20;;;;;;;;;;103737;1291;545114;-71
2024/01/05 01:28:34;;;;;;;23.60;9.20;;;;;;;;;;104089;1286;544759;-71
2024/01/05 01:32:11;;;;;;;21.10;7.40;;;;;;;;;;103746;1290;544819;-72
2024/01/05 01:36:07;;;;;;;14.80;4.90;;;;;;;;;;103635;1293;546011;-71
2024/01/05 01:39:25;;;;;;;8.60;2.60;;;;;;;;;;103909;1288;544974;-72
2024/01/05 01:43:03;;;;;;;5.70;1.70;;;;;;;;;;103798;1289;544846;-72
2024/01/05 01:46:41;;;;;;;3.80;1.30;;;;;;;;;;103833;1295;544727;-71
2024/01/05 01:50:18;;;;;;;6.10;2.20;;;;;;;;;;103836;1292;545443;-72
2024/01/05 01:53:56;;;;;;;9.20;3.00;;;;;;;;;;103678;1292;546249;-71
2024/01/05 01:57:34;;;;;;;10.90;4.00;;;;;;;;;;103691;1302;544788;-72
2024/01/05 02:01:12;;;;;;;12.40;4.60;;;;;;;;;;103807;1289;545070;-73
2024/01/05 02:04:48;;;;;;;9.80;3.70;;;;;;;;;;103761;1296;544766;-71
2024/01/05 02:08:26;;;;;;;6.10;2.10;;;;;;;;;;103712;1291;544955;-71
2024/01/05 02:12:03;;;;;;;5.20;1.70;;;;;;;;;;103725;1292;544974;-71
2024/01/05 02:15:41;;;;;;;4.40;1.30;;;;;;;;;;103768;1289;544947;-72
2024/01/05 02:19:18;;;;;;;2.90;1.20;;;;;;;;;;103760;1290;544765;-71
2024/01/05 02:22:58;;;;;;;3.50;1.40;;;;;;;;;;103726;1292;545192;-73
2024/01/05 02:26:33;;;;;;;4.80;1.50;;;;;;;;;;103636;1298;544938;-72
2024/01/05 02:30:06;;;;;;;7.30;3.40;;;;;;;;;;103814;1289;544916;-72
2024/01/05 02:33:47;;;;;;;9.00;5.00;;;;;;;;;;103741;1289;545033;-72
2024/01/05 02:37:25;;;;;;;9.30;5.00;;;;;;;;;;103702;1292;544977;-71
2024/01/05 02:41:03;;;;;;;7.90;3.70;;;;;;;;;;103729;1292;545096;-72
2024/01/05 02:44:40;;;;;;;7.10;2.90;;;;;;;;;;103768;1289;545867;-70
2024/01/05 02:48:17;;;;;;;7.00;3.30;;;;;;;;;;103708;1291;544757;-72
2024/01/05 02:51:54;;;;;;;7.60;2.70;;;;;;;;;;103753;1288;545422;-71
2024/01/05 02:55:32;;;;;;;6.50;2.70;;;;;;;;;;103678;1289;544742;-71
2024/01/05 02:59:09;;;;;;;6.40;2.30;;;;;;;;;;103469;1294;544909;-71
2024/01/05 03:02:47;;;;;;;7.20;3.00;;;;;;;;;;103709;1290;544762;-71
2024/01/05 03:06:25;;;;;;;7.00;3.30;;;;;;;;;;103665;1292;545068;-71
2024/01/05 03:10:02;;;;;;;7.40;3.30;;;;;;;;;;103568;1295;544872;-72
2024/01/05 03:13:40;;;;;;;3.50;1.60;;;;;;;;;;103673;1290;546100;-72
2024/01/05 03:17:17;;;;;;;4.30;1.70;;;;;;;;;;103614;1295;544763;-71
2024/01/05 03:20:54;;;;;;;5.00;2.20;;;;;;;;;;103824;1289;545756;-71
2024/01/05 03:24:32;;;;;;;5.70;2.40;;;;;;;;;;103636;1291;545419;-71
2024/01/05 03:28:13;;;;;;;5.90;2.60;;;;;;;;;;103796;1289;545063;-72
2024/01/05 03:31:52;;;;;;;6.90;2.80;;;;;;;;;;103536;1295;548123;-71
2024/01/05 03:35:24;;;;;;;5.30;2.60;;;;;;;;;;103740;1289;544979;-72
2024/01/05 03:39:02;;;;;;;5.40;2.50;;;;;;;;;;103539;1304;545161;-71
2024/01/05 03:42:39;;;;;;;5.50;1.90;;;;;;;;;;103903;1289;545344;-72
2024/01/05 03:46:17;;;;;;;5.60;2.20;;;;;;;;;;103659;1291;544770;-72
2024/01/05 03:49:54;;;;;;;4.90;1.90;;;;;;;;;;103711;1289;544986;-71
2024/01/05 03:53:32;;;;;;;5.60;1.80;;;;;;;;;;103707;1294;544965;-72
2024/01/05 03:57:09;;;;;;;4.50;1.60;;;;;;;;;;103805;1290;544987;-71
2024/01/05 04:00:47;;;;;;;4.40;1.90;;;;;;;;;;103719;1295;545171;-72
2024/01/05 04:04:24;;;;;;;4.60;1.50;;;;;;;;;;103707;1289;545058;-71
2024/01/05 04:08:03;;;;;;;7.70;2.90;;;;;;;;;;103822;1292;544894;-72
2024/01/05 04:11:38;;;;;;;10.00;3.30;;;;;;;;;;103787;1290;544995;-71
2024/01/05 04:15:16;;;;;;;9.50;2.50;;;;;;;;;;103823;1289;545514;-71
2024/01/05 04:18:54;;;;;;;7.20;2.50;;;;;;;;;;104236;1289;544864;-71
2024/01/05 04:22:31;;;;;;;7.10;2.50;;;;;;;;;;103799;1289;545415;-71
2024/01/05 04:26:09;;;;;;;8.10;2.40;;;;;;;;;;103701;1290;545435;-72
2024/01/05 04:29:47;;;;;;;6.40;2.70;;;;;;;;;;104721;1283;544825;-72
2024/01/05 04:33:23;;;;;;;6.90;2.60;;;;;;;;;;103774;1290;544870;-72
2024/01/05 04:37:00;;;;;;;8.90;3.50;;;;;;;;;;103686;1292;545022;-71
2024/01/05 04:40:38;;;;;;;8.80;3.50;;;;;;;;;;104586;1289;545056;-71
2024/01/05 04:44:16;;;;;;;8.40;3.30;;;;;;;;;;104234;1285;545001;-72
2024/01/05 04:47:54;;;;;;;8.00;3.30;;;;;;;;;;104368;1282;544756;-71
2024/01/05 04:51:31;;;;;;;10.50;5.10;;;;;;;;;;103706;1293;545476;-72
2024/01/05 04:55:09;;;;;;;9.60;4.90;;;;;;;;;;103698;1295;544846;-72
2024/01/05 04:58:46;;;;;;;12.60;6.30;;;;;;;;;;103713;1292;544835;-72
2024/01/05 05:02:23;;;;;;;10.50;6.30;;;;;;;;;;103758;1292;545456;-72
2024/01/05 05:06:00;;;;;;;10.50;7.20;;;;;;;;;;103790;1289;544903;-72
2024/01/05 05:09:38;;;;;;;11.40;7.00;;;;;;;;;;103867;1294;545383;-72
2024/01/05 05:13:16;;;;;;;14.10;8.10;;;;;;;;;;103731;1292;545552;-71
2024/01/05 05:16:59;;;;;;;12.50;6.70;;;;;;;;;;103588;1291;548037;-72
2024/01/05 05:20:31;;;;;;;11.70;7.20;;;;;;;;;;103785;1289;544929;-71
2024/01/05 05:24:08;;;;;;;12.60;7.10;;;;;;;;;;103850;1288;545461;-71
2024/01/05 05:27:46;;;;;;;13.70;8.70;;;;;;;;;;103790;1291;544785;-71
2024/01/05 05:31:23;;;;;;;14.00;9.90;;;;;;;;;;103783;1289;544723;-72
2024/01/05 05:35:00;;;;;;;16.90;11.20;;;;;;;;;;103770;1292;545146;-71
2024/01/05 05:38:38;;;;;;;13.70;8.60;;;;;;;;;;103772;1289;545733;-71
2024/01/05 05:42:15;;;;;;;15.40;8.10;;;;;;;;;;103734;1291;544806;-71
2024/01/05 05:45:53;;;;;;;14.70;8.00;;;;;;;;;;103790;1289;544900;-70
2024/01/05 05:49:31;;;;;;;11.60;5.70;;;;;;;;;;103751;1292;545644;-71
2024/01/05 05:53:10;;;;;;;9.50;5.20;;;;;;;;;;103920;1289;544947;-71
2024/01/05 05:56:46;;;;;;;7.70;4.00;;;;;;;;;;103575;1291;544970;-71
2024/01/05 06:00:25;;;;;;;9.80;4.50;;;;;;;;;;103742;1290;545676;-72
2024/01/05 06:04:01;;;;;;;9.40;4.70;;;;;;;;;;103716;1288;544784;-71
2024/01/05 06:07:38;;;;;;;10.80;5.50;;;;;;;;;;104035;1289;544968;-71
2024/01/05 06:11:18;;;;;;;11.70;8.20;;;;;;;;;;103738;1291;544935;-71
2024/01/05 06:14:52;;;;;;;15.00;9.70;;;;;;;;;;103738;1292;544930;-70
2024/01/05 06:18:30;;;;;;;12.60;7.90;;;;;;;;;;103701;1289;544863;-71
2024/01/05 06:22:08;;;;;;;12.00;6.60;;;;;;;;;;103655;1295;545128;-71
2024/01/05 06:25:45;;;;;;;15.30;7.20;;;;;;;;;;103729;1291;545412;-71
2024/01/05 06:29:22;;;;;;;14.20;7.40;;;;;;;;;;103706;1292;545068;-71
2024/01/05 06:33:00;;;;;;;11.70;6.10;;;;;;;;;;103735;1290;544732;-71
2024/01/05 06:36:38;;;;;;;9.80;5.00;;;;;;;;;;103555;1293;545062;-71
2024/01/05 06:40:15;;;;;;;8.60;4.40;;;;;;;;;;103767;1290;544762;-71
2024/01/05 06:43:52;;;;;;;9.20;4.60;;;;;;;;;;103743;1289;544769;-72
2024/01/05 06:47:30;;;;;;;11.50;5.70;;;;;;;;;;103671;1289;545780;-72
2024/01/05 06:51:03;;;;;;;12.30;6.60;;;;;;;;;;103927;1289;545411;-71
2024/01/05 06:54:44;;;;;;;10.80;6.20;;;;;;;;;;103723;1292;545390;-72
2024/01/05 06:58:23;;;;;;;11.70;6.70;;;;;;;;;;103830;1289;544939;-72
2024/01/05 07:01:59;;;;;;;9.40;5.80;;;;;;;;;;103727;1289;545434;-72
2024/01/05 07:05:33;;;;;;;10.80;6.40;;;;;;;;;;103926;1290;545413;-71
2024/01/05 07:09:14;;;;;;;10.10;6.00;;;;;;;;;;103623;1295;545878;-71
2024/01/05 07:12:52;;;;;;;10.70;6.80;;;;;;;;;;103781;1291;545153;-72
2024/01/05 07:16:36;;;;;;;12.10;8.40;;;;;;;;;;103528;1292;547863;-71
2024/01/05 07:20:08;;;;;;;10.80;7.10;;;;;;;;;;103591;1293;545091;-71
2024/01/05 07:23:44;;;;;;;13.50;7.60;;;;;;;;;;103915;1289;546429;-72
2024/01/05 07:27:22;;;;;;;11.70;7.40;;;;;;;;;;103712;1289;544997;-71
2024/01/05 07:30:55;;;;;;;10.70;7.50;;;;;;;;;;103826;1290;544870;-71
2024/01/05 07:34:33;;;;;;;14.70;8.70;;;;;;;;;;103873;1290;544929;-72
2024/01/05 07:38:15;;;;;;;12.00;7.50;;;;;;;;;;103790;1292;545012;-72
2024/01/05 07:41:52;;;;;;;12.90;8.20;;;;;;;;;;103745;1290;545784;-71
2024/01/05 07:45:29;;;;;;;11.80;7.60;;;;;;;;;;103822;1289;545026;-71
2024/01/05 07:49:07;;;;;;;11.60;7.80;;;;;;;;;;103751;1292;544848;-72
2024/01/05 07:52:44;;;;;;;15.00;10.40;;;;;;;;;;104358;1286;544888;-72
2024/01/05 07:56:22;;;;;;;14.80;9.90;;;;;;;;;;103740;1292;544863;-72
2024/01/05 07:59:59;;;;;;;14.40;8.90;;;;;;;;;;103759;1289;545021;-72
2024/01/05 08:03:36;;;;;;;14.30;9.00;;;;;;;;;;103748;1292;545347;-71
2024/01/05 08:07:14;;;;;;;14.10;9.80;;;;;;;;;;104098;1288;545219;-72
2024/01/05 08:10:53;;;;;;;15.10;10.40;;;;;;;;;;104120;1285;546397;-72
2024/01/05 08:14:34;;;;;;;15.90;10.80;;;;;;;;;;103392;1294;545970;-72
2024/01/05 08:18:06;;;;;;;21.80;13.60;;;;;;;;;;103720;1292;545359;-72
2024/01/05 08:21:43;;;;;;;22.20;14.60;;;;;;;;;;103865;1288;544795;-72
2024/01/05 08:25:25;;;;;;;22.10;14.20;;;;;;;;;;103685;1291;546158;-71
2024/01/05 08:28:58;;;;;;;21.10;13.80;;;;;;;;;;103735;1292;544938;-72
2024/01/05 08:32:33;;;;;;;20.80;14.40;;;;;;;;;;103949;1289;544766;-72
2024/01/05 08:36:14;;;;;;;19.10;11.60;;;;;;;;;;103947;1289;544883;-71
2024/01/05 08:39:51;;;;;;;23.00;11.40;;;;;;;;;;103726;1292;544704;-71
2024/01/05 08:43:30;;;;;;;16.90;11.10;;;;;;;;;;103760;1289;544990;-71
2024/01/05 08:47:06;;;;;;;15.40;10.40;;;;;;;;;;103670;1292;546315;-71
2024/01/05 08:50:44;;;;;;;16.60;10.50;;;;;;;;;;103779;1289;545744;-72
2024/01/05 08:54:22;;;;;;;14.70;9.50;;;;;;;;;;103714;1292;544871;-72
2024/01/05 08:57:58;;;;;;;15.00;9.70;;;;;;;;;;103721;1289;545021;-71
2024/01/05 09:01:36;;;;;;;14.40;9.20;;;;;;;;;;103650;1291;545734;-71
2024/01/05 09:05:13;;;;;;;14.00;10.20;;;;;;;;;;103784;1289;545483;-72
2024/01/05 09:08:51;;;;;;;15.10;10.40;;;;;;;;;;103587;1294;545036;-72
2024/01/05 09:12:28;;;;;;;14.40;10.10;;;;;;;;;;103740;1292;544933;-72
2024/01/05 09:16:06;;;;;;;13.20;9.10;;;;;;;;;;103583;1291;544974;-71
2024/01/05 09:19:44;;;;;;;15.90;11.10;;;;;;;;;;103889;1302;545763;-73
2024/01/05 09:23:23;;;;;;;17.60;12.00;;;;;;;;;;103833;1289;547993;-73
2024/01/05 09:26:58;;;;;;;15.80;10.90;;;;;;;;;;103746;1289;545519;-73
2024/01/05 09:30:36;;;;;;;15.10;10.00;;;;;;;;;;103911;1292;545457;-73
2024/01/05 09:34:13;;;;;;;14.90;11.00;;;;;;;;;;103729;1291;545595;-72
2024/01/05 09:37:52;;;;;;;16.10;11.70;;;;;;;;;;103760;1292;545064;-74
2024/01/05 09:41:28;;;;;;;17.40;12.00;;;;;;;;;;103728;1295;545551;-72
2024/01/05 09:45:09;;;;;;;18.30;12.60;;;;;;;;;;104166;1286;545107;-72
2024/01/05 09:48:43;;;;;;;17.90;12.20;;;;;;;;;;104093;1286;545524;-72
2024/01/05 09:52:21;;;;;;;15.80;11.10;;;;;;;;;;103665;1291;545621;-72
2024/01/05 09:55:58;;;;;;;18.50;12.40;;;;;;;;;;103744;1292;545065;-72
2024/01/05 09:59:36;;;;;;;20.30;14.50;;;;;;;;;;103447;1298;544973;-73
2024/01/05 10:03:22;;;;;;;19.20;13.30;;;;;;;;;;103850;1289;544896;-73
2024/01/05 10:07:00;;;;;;;20.40;14.10;;;;;;;;;;103740;1291;544855;-73
2024/01/05 10:10:51;;;;;;;22.40;15.40;;;;;;;;;;103740;1289;544953;-72
2024/01/05 10:14:06;;;;;;;22.60;15.60;;;;;;;;;;103714;1292;545415;-73
2024/01/05 10:17:42;;;;;;;20.00;13.50;;;;;;;;;;103710;1289;545743;-72
2024/01/05 10:21:22;;;;;;;18.40;13.20;;;;;;;;;;103662;1295;544789;-72
2024/01/05 10:25:12;;;;;;;19.30;13.40;;;;;;;;;;103701;1292;545560;-73
2024/01/05 10:28:37;;;;;;;19.80;14.00;;;;;;;;;;104281;1285;544989;-72
2024/01/05 10:32:16;;;;;;;24.20;16.40;;;;;;;;;;103800;1292;545000;-72
2024/01/05 10:35:50;;;;;;;62.20;35.60;;;;;;;;;;103724;1292;545593;-71
2024/01/05 10:39:27;;;;;;;33.30;20.30;;;;;;;;;;103827;1289;544937;-72
2024/01/05 10:43:11;;;;;;;28.70;17.70;;;;;;;;;;103695;1294;545277;-72
2024/01/05 10:46:43;;;;;;;19.00;12.30;;;;;;;;;;103759;1291;545168;-72
2024/01/05 10:50:20;;;;;;;61.70;38.00;;;;;;;;;;103525;1294;545821;-72
2024/01/05 10:53:57;;;;;;;79.50;38.40;;;;;;;;;;103858;1289;545468;-72
2024/01/05 10:57:39;;;;;;;21.20;14.20;;;;;;;;;;103731;1290;544986;-72
2024/01/05 11:01:13;;;;;;;24.00;14.70;;;;;;;;;;103909;1294;545553;-73
2024/01/05 11:04:59;;;;;;;22.60;14.00;;;;;;;;;;103799;1289;545140;-71
2024/01/05 11:08:46;;;;;;;19.10;13.30;;;;;;;;;;104593;1284;545692;-72
2024/01/05 11:12:12;;;;;;;22.90;16.20;;;;;;;;;;103719;1304;545595;-73
2024/01/05 11:15:42;;;;;;;22.10;16.30;;;;;;;;;;103810;1289;545659;-72
2024/01/05 11:19:23;;;;;;;45.40;27.00;;;;;;;;;;103898;1294;545318;-73
2024/01/05 11:22:53;;;;;;;46.00;29.40;;;;;;;;;;103586;1291;545036;-73
2024/01/05 11:26:36;;;;;;;45.70;28.10;;;;;;;;;;104458;1282;545610;-72
2024/01/05 11:30:37;;;;;;;31.10;20.40;;;;;;;;;;103504;1291;548010;-72
2024/01/05 11:33:51;;;;;;;41.80;26.80;;;;;;;;;;103806;1292;544889;-71
2024/01/05 11:37:31;;;;;;;27.00;18.30;;;;;;;;;;103735;1289;545092;-72
2024/01/05 11:41:14;;;;;;;37.00;26.10;;;;;;;;;;103721;1292;545263;-72
2024/01/05 11:44:42;;;;;;;39.20;31.10;;;;;;;;;;103693;1292;544966;-71
2024/01/05 11:48:43;;;;;;;28.10;17.20;;;;;;;;;;103609;1297;545751;-72
2024/01/05 11:51:57;;;;;;;15.90;9.50;;;;;;;;;;103879;1290;545388;-72
2024/01/05 11:55:39;;;;;;;16.80;10.50;;;;;;;;;;103814;1295;545036;-71
2024/01/05 11:59:12;;;;;;;17.40;10.10;;;;;;;;;;103723;1290;545145;-71
2024/01/05 12:02:49;;;;;;;17.70;11.10;;;;;;;;;;103746;1292;544771;-73
2024/01/05 12:06:27;;;;;;;22.80;14.70;;;;;;;;;;103569;1295;544964;-73
2024/01/05 12:10:04;;;;;;;17.60;11.50;;;;;;;;;;103831;1295;545021;-70
2024/01/05 12:13:38;;;;;;;20.10;12.80;;;;;;;;;;103753;1292;545435;-72
2024/01/05 12:17:19;;;;;;;19.30;12.40;;;;;;;;;;103764;1292;545764;-71
2024/01/05 12:20:57;;;;;;;17.40;10.40;;;;;;;;;;103631;1291;544938;-71
2024/01/05 12:24:35;;;;;;;15.40;9.50;;;;;;;;;;103639;1289;545258;-72
2024/01/05 12:28:17;;;;;;;17.60;10.70;;;;;;;;;;103510;1292;545523;-72
2024/01/05 12:31:49;;;;;;;16.30;10.10;;;;;;;;;;103642;1291;545373;-73
2024/01/05 12:35:26;;;;;;;17.90;11.40;;;;;;;;;;103606;1290;545665;-72
2024/01/05 12:39:08;;;;;;;20.80;13.50;;;;;;;;;;103970;1289;544860;-72
2024/01/05 12:42:41;;;;;;;19.70;12.20;;;;;;;;;;103774;1292;544749;-71
2024/01/05 12:46:22;;;;;;;26.80;16.90;;;;;;;;;;103786;1289;545432;-73
2024/01/05 12:49:56;;;;;;;19.90;12.90;;;;;;;;;;103696;1289;545926;-73
2024/01/05 12:53:34;;;;;;;20.80;12.50;;;;;;;;;;103784;1299;544853;-73
2024/01/05 12:57:10;;;;;;;21.50;12.20;;;;;;;;;;103779;1289;545737;-74
2024/01/05 13:00:51;;;;;;;22.40;12.80;;;;;;;;;;103633;1291;545956;-73
2024/01/05 13:04:27;;;;;;;25.10;15.40;;;;;;;;;;103806;1289;544602;-73
2024/01/05 13:08:03;;;;;;;23.90;15.70;;;;;;;;;;103748;1289;545156;-71
2024/01/05 13:11:53;;;;;;;17.90;11.90;;;;;;;;;;103700;1290;548327;-71
2024/01/05 13:15:15;;;;;;;20.40;12.10;;;;;;;;;;104280;1289;544863;-72
2024/01/05 13:18:56;;;;;;;28.10;18.10;;;;;;;;;;103814;1292;545019;-72
2024/01/05 13:22:33;;;;;;;28.00;18.40;;;;;;;;;;103836;1292;544998;-72
2024/01/05 13:26:10;;;;;;;21.10;14.00;;;;;;;;;;103863;1289;545641;-72
2024/01/05 13:30:30;;;;;;;18.90;11.70;;;;;;;;;;104611;1284;547845;-71
2024/01/05 13:33:25;;;;;;;20.70;11.90;;;;;;;;;;103959;1302;545607;-73
2024/01/05 13:37:03;;;;;;;19.60;12.90;;;;;;;;;;103797;1289;545181;-73
2024/01/05 13:40:41;;;;;;;21.40;13.60;;;;;;;;;;103782;1290;545894;-71
2024/01/05 13:44:17;;;;;;;19.60;13.10;;;;;;;;;;103779;1290;545060;-74
2024/01/05 13:47:55;;;;;;;19.30;12.50;;;;;;;;;;103722;1290;544827;-73
2024/01/05 13:51:33;;;;;;;17.70;11.70;;;;;;;;;;103577;1294;544969;-72
2024/01/05 13:55:10;;;;;;;16.80;11.80;;;;;;;;;;103657;1291;544899;-71
2024/01/05 13:58:48;;;;;;;21.40;13.40;;;;;;;;;;103717;1291;544947;-73
2024/01/05 14:02:25;;;;;;;25.80;17.80;;;;;;;;;;104562;1283;544754;-72
2024/01/05 14:06:08;;;;;;;32.30;20.10;;;;;;;;;;103636;1291;544776;-72
2024/01/05 14:10:01;;;;;;;46.70;27.60;;;;;;;;;;103724;1292;547793;-72
2024/01/05 14:13:18;;;;;;;45.20;25.30;;;;;;;;;;104119;1288;545683;-71
2024/01/05 14:16:57;;;;;;;28.20;17.80;;;;;;;;;;103883;1289;545510;-71
2024/01/05 14:20:33;;;;;;;37.10;22.60;;;;;;;;;;103740;1290;545337;-73
2024/01/05 14:24:10;;;;;;;60.30;35.50;;;;;;;;;;103553;1295;544713;-72
2024/01/05 14:27:47;;;;;;;53.60;32.70;;;;;;;;;;103744;1289;544995;-71
2024/01/05 14:31:28;;;;;;;31.10;19.10;;;;;;;;;;103775;1289;545311;-71
2024/01/05 14:35:04;;;;;;;29.60;18.00;;;;;;;;;;103680;1292;544744;-73
2024/01/05 14:38:45;;;;;;;38.70;22.60;;;;;;;;;;103507;1292;545620;-72
2024/01/05 14:42:13;;;;;;;34.30;21.90;;;;;;;;;;103772;1289;544625;-72
2024/01/05 14:45:54;;;;;;;31.00;18.20;;;;;;;;;;103673;1290;545581;-72
2024/01/05 14:49:28;;;;;;;34.20;19.40;;;;;;;;;;103926;1289;544836;-71
2024/01/05 14:53:10;;;;;;;31.60;19.80;;;;;;;;;;103450;1294;544739;-72
2024/01/05 14:56:47;;;;;;;25.90;16.20;;;;;;;;;;103920;1289;544821;-72
2024/01/05 15:00:26;;;;;;;27.10;17.60;;;;;;;;;;103868;1289;545443;-73
2024/01/05 15:04:00;;;;;;;29.00;18.10;;;;;;;;;;103913;1291;544942;-72
2024/01/05 15:07:40;;;;;;;29.60;17.20;;;;;;;;;;103779;1289;544830;-71
2024/01/05 15:11:18;;;;;;;27.00;16.60;;;;;;;;;;103711;1291;545169;-73
2024/01/05 15:15:07;;;;;;;26.10;16.30;;;;;;;;;;103708;1292;545094;-72
2024/01/05 15:18:32;;;;;;;23.20;15.70;;;;;;;;;;103801;1290;546155;-71
2024/01/05 15:22:09;;;;;;;26.00;17.10;;;;;;;;;;103798;1290;544945;-72
2024/01/05 15:25:47;;;;;;;32.30;19.80;;;;;;;;;;103508;1292;544769;-72
2024/01/05 15:29:24;;;;;;;29.10;20.20;;;;;;;;;;103827;1292;545275;-72
2024/01/05 15:33:03;;;;;;;27.60;18.50;;;;;;;;;;103854;1289;545243;-73
2024/01/05 15:36:39;;;;;;;29.60;19.90;;;;;;;;;;103697;1289;544896;-74
2024/01/05 15:40:17;;;;;;;32.30;21.70;;;;;;;;;;103921;1289;545202;-73
2024/01/05 15:43:55;;;;;;;33.90;21.60;;;;;;;;;;103702;1292;545684;-73
2024/01/05 15:47:32;;;;;;;33.90;21.20;;;;;;;;;;103712;1293;545594;-72
2024/01/05 15:51:13;;;;;;;36.30;23.50;;;;;;;;;;103488;1290;545000;-71
2024/01/05 15:54:46;;;;;;;33.30;23.20;;;;;;;;;;103776;1292;545150;-74
2024/01/05 15:58:24;;;;;;;40.80;27.50;;;;;;;;;;103782;1292;544882;-71
2024/01/05 16:02:02;;;;;;;46.00;31.30;;;;;;;;;;103718;1289;544841;-72
2024/01/05 16:05:39;;;;;;;41.90;28.40;;;;;;;;;;103704;1290;544960;-72
2024/01/05 16:09:18;;;;;;;44.30;29.20;;;;;;;;;;103698;1290;544851;-72
2024/01/05 16:12:54;;;;;;;38.50;27.10;;;;;;;;;;103689;1290;546160;-73
2024/01/05 16:16:39;;;;;;;36.40;25.40;;;;;;;;;;103658;1303;547803;-72
2024/01/05 16:20:10;;;;;;;39.90;28.20;;;;;;;;;;103687;1295;545521;-73
2024/01/05 16:23:47;;;;;;;40.90;29.20;;;;;;;;;;103801;1290;545669;-71
2024/01/05 16:27:24;;;;;;;44.10;30.50;;;;;;;;;;103668;1292;544911;-72
2024/01/05 16:31:01;;;;;;;46.00;31.80;;;;;;;;;;103678;1289;544859;-73
2024/01/05 16:34:38;;;;;;;45.70;31.10;;;;;;;;;;103685;1292;544827;-73
2024/01/05 16:38:16;;;;;;;47.20;32.00;;;;;;;;;;103726;1289;546145;-73
2024/01/05 16:41:53;;;;;;;51.30;35.90;;;;;;;;;;104146;1288;545069;-73
2024/01/05 16:45:30;;;;;;;49.20;35.40;;;;;;;;;;103771;1289;544783;-73
2024/01/05 16:49:08;;;;;;;51.00;35.00;;;;;;;;;;103726;1292;545498;-72
2024/01/05 16:52:51;;;;;;;51.40;36.10;;;;;;;;;;103622;1292;548170;-73
2024/01/05 16:56:28;;;;;;;50.10;32.50;;;;;;;;;;103762;1294;544884;-72
2024/01/05 17:00:00;;;;;;;44.40;30.10;;;;;;;;;;104874;1283;545027;-72
2024/01/05 17:03:38;;;;;;;46.70;31.60;;;;;;;;;;103861;1289;545400;-71
2024/01/05 17:07:16;;;;;;;45.60;32.30;;;;;;;;;;103875;1292;545038;-73
2024/01/05 17:10:54;;;;;;;48.50;31.20;;;;;;;;;;103685;1289;544759;-72
2024/01/05 17:14:28;;;;;;;48.70;31.90;;;;;;;;;;103780;1292;545433;-71
2024/01/05 17:18:08;;;;;;;50.00;32.80;;;;;;;;;;103769;1291;545008;-73
2024/01/05 17:21:47;;;;;;;46.90;30.50;;;;;;;;;;103804;1292;544773;-73
2024/01/05 17:25:23;;;;;;;48.20;32.90;;;;;;;;;;103763;1290;546126;-72
2024/01/05 17:29:01;;;;;;;59.20;37.40;;;;;;;;;;103726;1291;544835;-72
2024/01/05 17:32:39;;;;;;;54.60;36.10;;;;;;;;;;103753;1292;545380;-71
2024/01/05 17:36:15;;;;;;;55.00;35.30;;;;;;;;;;103794;1291;545496;-72
2024/01/05 17:39:55;;;;;;;56.20;36.40;;;;;;;;;;103787;1291;545066;-72
2024/01/05 17:47:19;;;;;;;54.60;35.40;;;;;;;;;;104028;1292;545509;-71
2024/01/05 17:51:00;;;;;;;56.50;37.70;;;;;;;;;;103995;1291;545098;-71
2024/01/05 17:54:29;;;;;;;57.10;36.20;;;;;;;;;;105036;1289;545117;-72
2024/01/05 17:58:11;;;;;;;53.80;34.40;;;;;;;;;;104054;1289;544999;-72
2024/01/05 18:01:45;;;;;;;51.50;34.40;;;;;;;;;;103994;1292;544881;-71
2024/01/05 18:05:26;;;;;;;51.50;34.80;;;;;;;;;;103933;1289;545618;-73
2024/01/05 18:09:05;;;;;;;52.50;36.00;;;;;;;;;;103844;1289;545437;-72
2024/01/05 18:12:42;;;;;;;51.60;35.00;;;;;;;;;;103802;1289;545006;-72
2024/01/05 18:16:21;;;;;;;54.10;34.00;;;;;;;;;;104028;1288;544979;-71
2024/01/05 18:19:55;;;;;;;47.10;32.10;;;;;;;;;;103738;1292;544878;-73
2024/01/05 18:23:33;;;;;;;47.90;31.60;;;;;;;;;;103680;1295;545526;-72
2024/01/05 18:27:11;;;;;;;47.00;31.70;;;;;;;;;;103942;1289;545626;-72
2024/01/05 18:30:48;;;;;;;46.20;32.90;;;;;;;;;;103675;1289;544947;-71
2024/01/05 18:34:47;;;;;;;52.80;36.00;;;;;;;;;;103763;1292;547948;-72
2024/01/05 18:37:59;;;;;;;60.90;38.40;;;;;;;;;;104114;1288;544827;-73
2024/01/05 18:41:40;;;;;;;59.20;38.40;;;;;;;;;;103686;1292;545588;-71
2024/01/05 18:45:18;;;;;;;54.30;35.80;;;;;;;;;;103745;1292;545008;-72
2024/01/05 18:49:02;;;;;;;56.10;36.50;;;;;;;;;;103438;1298;548050;-72
2024/01/05 18:52:32;;;;;;;52.60;34.60;;;;;;;;;;103777;1289;546120;-73
2024/01/05 18:56:13;;;;;;;53.40;34.40;;;;;;;;;;103772;1289;545425;-72
2024/01/05 18:59:47;;;;;;;49.50;33.20;;;;;;;;;;103705;1293;545043;-72
2024/01/05 19:03:25;;;;;;;49.40;32.20;;;;;;;;;;103719;1292;544971;-71
2024/01/05 19:07:02;;;;;;;47.30;30.70;;;;;;;;;;103807;1289;545408;-72
2024/01/05 19:10:40;;;;;;;47.80;33.70;;;;;;;;;;103727;1290;545558;-72
2024/01/05 19:14:23;;;;;;;55.50;35.80;;;;;;;;;;103622;1292;547842;-71
2024/01/05 19:17:55;;;;;;;77.00;43.30;;;;;;;;;;104172;1286;545048;-71
2024/01/05 19:21:32;;;;;;;75.70;41.10;;;;;;;;;;103687;1291;544773;-73
2024/01/05 19:25:10;;;;;;;72.60;40.80;;;;;;;;;;103545;1292;544990;-72
2024/01/05 19:28:47;;;;;;;72.90;42.80;;;;;;;;;;103765;1289;544807;-72
2024/01/05 19:32:21;;;;;;;69.20;42.70;;;;;;;;;;103832;1290;545356;-71
2024/01/05 19:36:10;;;;;;;60.70;38.90;;;;;;;;;;103567;1292;547996;-72
2024/01/05 19:39:46;;;;;;;58.40;36.00;;;;;;;;;;103513;1291;547957;-72
2024/01/05 19:43:16;;;;;;;62.40;39.10;;;;;;;;;;103721;1289;544872;-72
2024/01/05 19:46:55;;;;;;;62.30;39.90;;;;;;;;;;103729;1292;545425;-72
2024/01/05 19:50:33;;;;;;;68.70;43.50;;;;;;;;;;103786;1290;544949;-71
2024/01/05 19:54:09;;;;;;;68.50;42.00;;;;;;;;;;103800;1289;546008;-72
2024/01/05 19:57:48;;;;;;;67.90;43.50;;;;;;;;;;103694;1292;545576;-71
2024/01/05 20:01:24;;;;;;;69.40;41.30;;;;;;;;;;103728;1296;545094;-71
2024/01/05 20:05:02;;;;;;;79.30;46.10;;;;;;;;;;103883;1295;544601;-71
2024/01/05 20:08:39;;;;;;;82.30;47.90;;;;;;;;;;103759;1295;544992;-71
2024/01/05 20:12:16;;;;;;;81.10;47.40;;;;;;;;;;104059;1287;544833;-71
2024/01/05 20:15:54;;;;;;;54.30;34.80;;;;;;;;;;103757;1290;544777;-71
2024/01/05 20:19:33;;;;;;;48.70;30.50;;;;;;;;;;103870;1289;545638;-72
2024/01/05 20:23:09;;;;;;;53.50;33.20;;;;;;;;;;103804;1295;544843;-72
2024/01/05 20:26:52;;;;;;;52.00;33.80;;;;;;;;;;103688;1295;545069;-71
2024/01/05 20:30:24;;;;;;;48.90;32.10;;;;;;;;;;103691;1292;545057;-71
2024/01/05 20:34:04;;;;;;;51.70;31.40;;;;;;;;;;103823;1289;544861;-71
2024/01/05 20:37:39;;;;;;;49.30;31.40;;;;;;;;;;103931;1289;545832;-72
2024/01/05 20:41:16;;;;;;;50.60;33.20;;;;;;;;;;103764;1289;545070;-71
2024/01/05 20:45:14;;;;;;;51.40;34.00;;;;;;;;;;103619;1293;548095;-71